createdAt,value
2023-03-18T00:01:09.695Z,7.00
2023-03-18T00:03:39.764Z,7.00
2023-03-18T00:06:09.502Z,7.00
2023-03-18T00:08:37.183Z,7.00
2023-03-18T00:11:05.570Z,7.00
2023-03-18T00:13:34.721Z,7.00
2023-03-18T00:16:02.585Z,7.00
2023-03-18T00:18:30.112Z,7.00
2023-03-18T00:20:59.083Z,7.00
2023-03-18T00:23:26.305Z,7.10
2023-03-18T00:25:57.245Z,7.10
2023-03-18T00:28:25.988Z,7.10
2023-03-18T00:30:53.803Z,7.10
2023-03-18T00:33:21.020Z,7.10
2023-03-18T00:35:48.183Z,7.10
2023-03-18T00:38:20.828Z,7.10
2023-03-18T00:41:01.278Z,7.20
2023-03-18T00:43:33.588Z,7.10
2023-03-18T00:46:00.678Z,7.10
2023-03-18T00:48:27.946Z,7.10
2023-03-18T00:50:54.784Z,7.10
2023-03-18T00:53:21.961Z,7.10
2023-03-18T00:55:48.744Z,7.10
2023-03-18T00:58:15.516Z,7.10
2023-03-18T01:00:42.427Z,7.10
2023-03-18T01:03:09.300Z,7.10
2023-03-18T01:05:38.215Z,7.20
2023-03-18T01:08:05.115Z,7.20
2023-03-18T01:10:32.515Z,7.20
2023-03-18T01:12:59.470Z,7.20
2023-03-18T01:15:26.310Z,7.30
2023-03-18T01:17:56.973Z,7.30
2023-03-18T01:20:24.803Z,7.30
2023-03-18T01:22:51.648Z,7.40
2023-03-18T01:25:18.656Z,7.40
2023-03-18T01:27:45.434Z,7.30
2023-03-18T01:30:13.476Z,7.30
2023-03-18T01:32:41.276Z,7.30
2023-03-18T01:35:08.585Z,7.30
2023-03-18T01:37:35.562Z,7.20
2023-03-18T01:40:02.683Z,7.20
2023-03-18T01:42:29.528Z,7.20
2023-03-18T01:45:18.145Z,7.30
2023-03-18T01:47:46.569Z,7.30
2023-03-18T01:50:17.070Z,7.40
2023-03-18T01:52:46.716Z,7.50
2023-03-18T01:55:20.660Z,7.70
2023-03-18T01:57:49.667Z,7.70
2023-03-18T02:00:17.159Z,7.80
2023-03-18T02:02:45.608Z,7.90
2023-03-18T02:05:16.445Z,8.10
2023-03-18T02:07:44.536Z,8.00
2023-03-18T02:10:32.155Z,7.90
2023-03-18T02:13:03.714Z,7.70
2023-03-18T02:15:33.908Z,7.50
2023-03-18T02:18:14.470Z,7.40
2023-03-18T02:21:09.094Z,7.30
2023-03-18T02:24:03.090Z,7.30
2023-03-18T02:26:46.290Z,7.20
2023-03-18T02:29:15.902Z,7.20
2023-03-18T02:31:44.103Z,7.20
2023-03-18T02:34:11.987Z,7.20
2023-03-18T02:36:38.993Z,7.30
2023-03-18T02:39:05.971Z,7.20
2023-03-18T02:41:35.484Z,7.30
2023-03-18T02:44:02.682Z,7.50
2023-03-18T02:46:32.650Z,7.70
2023-03-18T02:49:06.727Z,8.00
2023-03-18T02:51:34.642Z,8.20
2023-03-18T02:54:16.978Z,8.40
2023-03-18T02:56:44.309Z,8.50
2023-03-18T02:59:13.240Z,8.40
2023-03-18T03:01:42.866Z,8.40
2023-03-18T03:04:10.579Z,8.40
2023-03-18T03:06:37.433Z,8.30
2023-03-18T03:09:09.713Z,8.30
2023-03-18T03:11:37.017Z,8.20
2023-03-18T03:14:04.242Z,8.20
2023-03-18T03:16:31.626Z,8.10
2023-03-18T03:18:58.889Z,8.10
2023-03-18T03:21:26.676Z,8.20
2023-03-18T03:23:54.544Z,8.30
2023-03-18T03:26:21.526Z,8.50
2023-03-18T03:28:48.574Z,8.70
2023-03-18T03:31:15.608Z,8.80
2023-03-18T03:33:43.785Z,8.80
2023-03-18T03:36:17.054Z,8.80
2023-03-18T03:38:44.334Z,8.80
2023-03-18T03:41:13.068Z,8.90
2023-03-18T03:43:40.989Z,8.80
2023-03-18T03:46:09.398Z,8.80
2023-03-18T03:48:36.457Z,8.70
2023-03-18T03:51:03.951Z,8.70
2023-03-18T03:53:30.973Z,8.70
2023-03-18T03:55:59.236Z,8.50
2023-03-18T03:58:26.687Z,8.40
2023-03-18T04:00:53.559Z,8.30
2023-03-18T04:03:20.378Z,8.20
2023-03-18T04:05:47.842Z,8.20
2023-03-18T04:08:14.649Z,8.10
2023-03-18T04:10:41.480Z,8.00
2023-03-18T04:13:08.880Z,8.00
2023-03-18T04:15:35.827Z,8.00
2023-03-18T04:18:06.860Z,8.00
2023-03-18T04:20:35.730Z,8.00
2023-03-18T04:23:02.816Z,8.10
2023-03-18T04:25:30.241Z,8.20
2023-03-18T04:27:57.588Z,8.10
2023-03-18T04:30:25.630Z,8.10
2023-03-18T04:32:53.153Z,8.00
2023-03-18T04:35:21.158Z,8.00
2023-03-18T04:37:48.739Z,7.90
2023-03-18T04:40:15.802Z,7.90
2023-03-18T04:42:43.215Z,7.80
2023-03-18T04:45:10.501Z,7.80
2023-03-18T04:47:38.268Z,7.80
2023-03-18T04:50:05.930Z,7.80
2023-03-18T04:52:33.677Z,7.80
2023-03-18T04:55:00.515Z,7.80
2023-03-18T04:57:28.574Z,7.80
2023-03-18T04:59:55.492Z,7.80
2023-03-18T05:02:22.435Z,7.80
2023-03-18T05:04:49.618Z,7.80
2023-03-18T05:07:17.082Z,7.70
2023-03-18T05:09:44.085Z,7.70
2023-03-18T05:12:16.298Z,7.60
2023-03-18T05:14:43.730Z,7.60
2023-03-18T05:17:15.696Z,7.60
2023-03-18T05:19:44.315Z,7.60
2023-03-18T05:22:11.944Z,7.60
2023-03-18T05:24:39.964Z,7.50
2023-03-18T05:27:07.177Z,7.50
2023-03-18T05:29:33.992Z,7.60
2023-03-18T05:32:00.870Z,7.60
2023-03-18T05:34:27.829Z,7.60
2023-03-18T05:36:54.581Z,7.60
2023-03-18T05:39:21.373Z,7.60
2023-03-18T05:41:48.137Z,7.70
2023-03-18T05:44:14.919Z,7.70
2023-03-18T05:46:41.917Z,7.80
2023-03-18T05:49:09.067Z,7.80
2023-03-18T05:51:36.376Z,7.80
2023-03-18T05:54:04.817Z,7.80
2023-03-18T05:56:32.769Z,7.80
2023-03-18T05:58:59.660Z,7.90
2023-03-18T06:01:26.464Z,7.80
2023-03-18T06:03:53.862Z,7.90
2023-03-18T06:06:20.677Z,7.90
2023-03-18T06:08:48.611Z,7.90
2023-03-18T06:11:15.456Z,7.90
2023-03-18T06:13:42.267Z,8.00
2023-03-18T06:16:09.238Z,8.10
2023-03-18T06:18:36.099Z,8.10
2023-03-18T06:21:03.085Z,8.10
2023-03-18T06:23:30.048Z,8.20
2023-03-18T06:25:56.885Z,8.20
2023-03-18T06:28:23.786Z,8.30
2023-03-18T06:30:50.733Z,8.40
2023-03-18T06:33:18.409Z,8.40
2023-03-18T06:35:48.236Z,8.40
2023-03-18T06:38:16.784Z,8.40
2023-03-18T06:40:44.543Z,8.50
2023-03-18T06:43:11.663Z,8.60
2023-03-18T06:45:40.277Z,8.80
2023-03-18T06:48:08.472Z,9.00
2023-03-18T06:50:35.394Z,9.10
2023-03-18T06:53:02.395Z,9.20
2023-03-18T06:55:29.399Z,9.20
2023-03-18T06:57:56.640Z,9.30
2023-03-18T07:00:24.921Z,9.50
2023-03-18T07:02:52.722Z,9.70
2023-03-18T07:05:20.840Z,9.80
2023-03-18T07:07:48.578Z,10.00
2023-03-18T07:10:22.704Z,10.10
2023-03-18T07:12:50.545Z,10.20
2023-03-18T07:15:20.319Z,10.30
2023-03-18T07:17:47.672Z,10.30
2023-03-18T07:20:16.216Z,10.30
2023-03-18T07:22:44.470Z,10.50
2023-03-18T07:25:11.780Z,10.80
2023-03-18T07:27:39.950Z,11.00
2023-03-18T07:30:09.689Z,11.30
2023-03-18T07:32:38.516Z,11.60
2023-03-18T07:35:06.631Z,11.80
2023-03-18T07:37:33.651Z,12.00
2023-03-18T07:40:00.560Z,11.90
2023-03-18T07:42:28.411Z,12.00
2023-03-18T07:44:55.302Z,12.00
2023-03-18T07:47:24.100Z,12.00
2023-03-18T07:49:52.024Z,12.10
2023-03-18T07:52:19.294Z,12.30
2023-03-18T07:54:46.227Z,12.50
2023-03-18T07:57:13.202Z,12.60
2023-03-18T07:59:40.518Z,12.90
2023-03-18T08:02:08.832Z,12.90
2023-03-18T08:04:35.716Z,12.90
2023-03-18T08:07:03.167Z,13.10
2023-03-18T08:09:30.040Z,13.40
2023-03-18T08:11:57.097Z,13.60
2023-03-18T08:14:24.333Z,13.70
2023-03-18T08:16:51.240Z,13.80
2023-03-18T08:19:18.254Z,13.90
2023-03-18T08:21:45.212Z,14.00
2023-03-18T08:24:12.388Z,14.10
2023-03-18T08:26:39.350Z,14.20
2023-03-18T08:29:06.250Z,14.40
2023-03-18T08:31:33.172Z,14.70
2023-03-18T08:34:00.652Z,15.00
2023-03-18T08:36:28.755Z,15.20
2023-03-18T08:38:56.577Z,15.40
2023-03-18T08:41:25.705Z,15.50
2023-03-18T08:43:53.242Z,15.70
2023-03-18T08:46:20.390Z,15.90
2023-03-18T08:48:47.377Z,16.40
2023-03-18T08:51:14.685Z,16.60
2023-03-18T08:53:41.502Z,16.70
2023-03-18T08:56:08.440Z,16.70
2023-03-18T08:58:35.407Z,16.80
2023-03-18T09:01:05.448Z,17.00
2023-03-18T09:03:33.880Z,17.00
2023-03-18T09:06:00.942Z,16.80
2023-03-18T09:08:29.470Z,16.90
2023-03-18T09:10:56.766Z,17.40
2023-03-18T09:13:23.944Z,17.90
2023-03-18T09:15:51.913Z,18.50
2023-03-18T09:18:19.582Z,18.10
2023-03-18T09:20:47.014Z,18.10
2023-03-18T09:23:15.782Z,18.20
2023-03-18T09:25:43.065Z,18.80
2023-03-18T09:28:10.079Z,18.60
2023-03-18T09:30:38.337Z,19.10
2023-03-18T09:33:09.429Z,19.70
2023-03-18T09:35:37.171Z,20.00
2023-03-18T09:38:04.797Z,20.20
2023-03-18T09:40:37.997Z,20.20
2023-03-18T09:43:23.689Z,19.70
2023-03-18T09:46:31.918Z,19.70
2023-03-18T09:49:19.647Z,19.50
2023-03-18T09:51:57.715Z,19.90
2023-03-18T09:54:55.207Z,20.20
2023-03-18T09:57:28.646Z,21.00
2023-03-18T10:00:18.475Z,21.70
2023-03-18T10:02:55.694Z,22.30
2023-03-18T10:05:35.276Z,22.70
2023-03-18T10:08:21.244Z,23.10
2023-03-18T10:10:49.076Z,23.80
2023-03-18T10:13:27.828Z,24.10
2023-03-18T10:15:57.053Z,24.50
2023-03-18T10:18:33.555Z,24.40
2023-03-18T10:21:04.065Z,24.20
2023-03-18T10:24:02.170Z,24.30
2023-03-18T10:26:34.776Z,25.50
2023-03-18T10:29:10.516Z,25.90
2023-03-18T10:31:48.114Z,27.00
2023-03-18T10:34:33.800Z,26.80
2023-03-18T10:37:06.394Z,25.00
2023-03-18T10:39:35.568Z,24.10
2023-03-18T10:42:20.681Z,23.80
2023-03-18T10:44:49.135Z,23.20
2023-03-18T10:47:21.688Z,23.90
2023-03-18T10:50:06.292Z,25.10
2023-03-18T10:52:40.435Z,25.50
2023-03-18T10:55:20.897Z,24.70
2023-03-18T10:57:47.839Z,24.00
2023-03-18T11:00:33.440Z,24.70
2023-03-18T11:03:02.168Z,26.30
2023-03-18T11:05:35.004Z,25.60
2023-03-18T11:08:05.384Z,25.60
2023-03-18T11:10:44.240Z,25.70
2023-03-18T11:13:18.306Z,25.90
2023-03-18T11:15:52.744Z,26.40
2023-03-18T11:18:27.482Z,26.30
2023-03-18T11:21:01.174Z,26.40
2023-03-18T11:23:56.528Z,26.90
2023-03-18T11:26:30.591Z,25.70
2023-03-18T11:29:11.160Z,25.80
2023-03-18T11:31:58.432Z,26.50
2023-03-18T11:34:27.124Z,26.90
2023-03-18T11:37:01.009Z,26.30
2023-03-18T11:39:34.597Z,26.80
2023-03-18T11:42:01.580Z,27.30
2023-03-18T11:44:33.207Z,27.90
2023-03-18T11:47:06.137Z,27.80
2023-03-18T11:49:34.414Z,27.90
2023-03-18T11:52:14.714Z,27.50
2023-03-18T11:54:41.977Z,27.80
2023-03-18T11:57:18.084Z,27.60
2023-03-18T12:00:02.643Z,27.70
2023-03-18T12:03:10.663Z,27.80
2023-03-18T12:05:53.379Z,28.50
2023-03-18T12:08:23.196Z,27.20
2023-03-18T12:11:07.425Z,27.60
2023-03-18T12:14:26.078Z,27.80
2023-03-18T12:17:07.501Z,27.90
2023-03-18T12:19:34.320Z,27.40
2023-03-18T12:22:14.121Z,28.40
2023-03-18T12:25:20.381Z,28.70
2023-03-18T12:28:02.831Z,28.90
2023-03-18T12:30:44.635Z,27.60
2023-03-18T12:33:38.850Z,27.00
2023-03-18T12:36:14.484Z,27.30
2023-03-18T12:38:51.661Z,26.80
2023-03-18T12:41:25.222Z,25.90
2023-03-18T12:44:10.730Z,25.70
2023-03-18T12:46:37.480Z,25.90
2023-03-18T12:49:14.539Z,26.90
2023-03-18T12:51:57.373Z,27.50
2023-03-18T12:54:33.506Z,28.30
2023-03-18T12:57:29.109Z,28.50
2023-03-18T13:00:06.694Z,28.60
2023-03-18T13:02:43.630Z,29.00
2023-03-18T13:05:32.811Z,28.50
2023-03-18T13:08:11.993Z,29.10
2023-03-18T13:10:38.814Z,29.10
2023-03-18T13:13:09.502Z,29.20
2023-03-18T13:15:52.733Z,28.50
2023-03-18T13:18:21.054Z,28.40
2023-03-18T13:20:49.388Z,26.50
2023-03-18T13:23:28.153Z,27.40
2023-03-18T13:26:22.800Z,27.60
2023-03-18T13:28:57.523Z,28.00
2023-03-18T13:31:49.766Z,28.30
2023-03-18T13:34:54.768Z,28.30
2023-03-18T13:38:00.038Z,29.60
2023-03-18T13:41:10.083Z,27.90
2023-03-18T13:43:40.798Z,27.50
2023-03-18T13:46:29.150Z,27.00
2023-03-18T13:48:58.896Z,28.00
2023-03-18T13:51:25.641Z,28.60
2023-03-18T13:54:00.798Z,27.60
2023-03-18T13:56:37.829Z,27.50
2023-03-18T13:59:06.595Z,27.70
2023-03-18T14:01:36.359Z,28.10
2023-03-18T14:04:32.455Z,27.90
2023-03-18T14:07:22.459Z,27.80
2023-03-18T14:10:15.195Z,27.70
2023-03-18T14:12:49.724Z,26.80
2023-03-18T14:15:35.763Z,26.60
2023-03-18T14:18:02.922Z,26.70
2023-03-18T14:20:41.903Z,26.50
2023-03-18T14:23:27.457Z,26.80
2023-03-18T14:26:03.431Z,27.30
2023-03-18T14:28:39.892Z,27.70
2023-03-18T14:31:25.654Z,27.80
2023-03-18T14:33:59.091Z,26.60
2023-03-18T14:36:46.749Z,27.20
2023-03-18T14:39:18.645Z,27.40
2023-03-18T14:41:49.249Z,27.00
2023-03-18T14:44:21.424Z,26.50
2023-03-18T14:46:58.294Z,25.90
2023-03-18T14:49:39.430Z,25.80
2023-03-18T14:52:18.159Z,25.80
2023-03-18T14:54:46.107Z,25.10
2023-03-18T14:57:13.396Z,24.30
2023-03-18T14:59:40.146Z,23.20
2023-03-18T15:02:21.125Z,23.00
2023-03-18T15:04:55.866Z,22.50
2023-03-18T15:07:37.334Z,21.70
2023-03-18T15:10:17.549Z,21.20
2023-03-18T15:12:44.537Z,21.00
2023-03-18T15:15:15.007Z,20.80
2023-03-18T15:17:46.806Z,20.50
2023-03-18T15:20:14.297Z,20.30
2023-03-18T15:22:42.062Z,20.10
2023-03-18T15:25:18.284Z,20.10
2023-03-18T15:27:46.138Z,20.00
2023-03-18T15:30:50.459Z,20.20
2023-03-18T15:33:21.048Z,20.30
2023-03-18T15:35:56.132Z,20.10
2023-03-18T15:38:28.840Z,20.00
2023-03-18T15:41:01.354Z,19.90
2023-03-18T15:43:47.197Z,19.70
2023-03-18T15:46:24.944Z,19.80
2023-03-18T15:48:56.846Z,19.60
2023-03-18T15:51:49.735Z,19.40
2023-03-18T15:54:28.154Z,19.10
2023-03-18T15:56:56.942Z,18.70
2023-03-18T15:59:29.123Z,18.30
2023-03-18T16:01:57.238Z,17.90
2023-03-18T16:04:25.636Z,17.80
2023-03-18T16:06:55.547Z,17.80
2023-03-18T16:09:24.970Z,17.70
2023-03-18T16:12:00.651Z,17.70
2023-03-18T16:14:37.836Z,17.50
2023-03-18T16:17:04.742Z,17.40
2023-03-18T16:19:32.463Z,17.20
2023-03-18T16:21:59.835Z,17.00
2023-03-18T16:24:27.126Z,16.90
2023-03-18T16:26:55.275Z,16.80
2023-03-18T16:29:30.992Z,16.70
2023-03-18T16:31:58.256Z,16.60
2023-03-18T16:34:25.159Z,16.50
2023-03-18T16:36:53.571Z,16.50
2023-03-18T16:39:33.920Z,16.80
2023-03-18T16:42:02.355Z,17.10
2023-03-18T16:44:29.712Z,17.60
2023-03-18T16:46:57.749Z,18.10
2023-03-18T16:49:29.494Z,18.60
2023-03-18T16:51:57.053Z,19.10
2023-03-18T16:54:25.860Z,19.70
2023-03-18T16:56:57.473Z,19.60
2023-03-18T16:59:29.570Z,19.20
2023-03-18T17:01:56.493Z,18.90
2023-03-18T17:04:30.413Z,18.20
2023-03-18T17:06:59.797Z,17.40
2023-03-18T17:09:27.686Z,16.80
2023-03-18T17:11:58.884Z,16.40
2023-03-18T17:14:40.482Z,16.00
2023-03-18T17:17:26.701Z,15.70
2023-03-18T17:19:53.762Z,15.40
2023-03-18T17:22:32.656Z,15.20
2023-03-18T17:25:02.789Z,15.00
2023-03-18T17:27:40.593Z,14.80
2023-03-18T17:30:21.868Z,14.70
2023-03-18T17:32:49.907Z,14.50
2023-03-18T17:35:19.370Z,14.50
2023-03-18T17:37:46.524Z,14.30
2023-03-18T17:40:16.105Z,14.20
2023-03-18T17:42:44.342Z,14.10
2023-03-18T17:45:33.253Z,14.00
2023-03-18T17:48:29.959Z,13.90
2023-03-18T17:51:18.724Z,13.70
2023-03-18T17:53:51.436Z,13.60
2023-03-18T17:56:19.526Z,13.50
2023-03-18T17:58:49.467Z,13.50
2023-03-18T18:01:24.372Z,13.50
2023-03-18T18:03:51.323Z,13.50
2023-03-18T18:06:29.197Z,13.50
2023-03-18T18:09:00.678Z,13.40
2023-03-18T18:11:37.896Z,13.40
2023-03-18T18:14:10.765Z,13.30
2023-03-18T18:16:37.621Z,13.20
2023-03-18T18:19:04.515Z,13.20
2023-03-18T18:21:31.415Z,13.00
2023-03-18T18:23:58.508Z,12.90
2023-03-18T18:26:25.535Z,12.80
2023-03-18T18:28:53.462Z,12.80
2023-03-18T18:31:24.163Z,12.70
2023-03-18T18:33:51.684Z,12.70
2023-03-18T18:36:18.529Z,12.70
2023-03-18T18:38:45.903Z,12.70
2023-03-18T18:41:13.009Z,12.70
2023-03-18T18:43:39.952Z,12.60
2023-03-18T18:46:13.875Z,12.60
2023-03-18T18:48:41.739Z,12.60
2023-03-18T18:51:18.858Z,12.60
2023-03-18T18:53:46.606Z,12.50
2023-03-18T18:56:32.319Z,12.40
2023-03-18T18:58:59.404Z,12.40
2023-03-18T19:01:27.081Z,12.40
2023-03-18T19:03:54.213Z,12.40
2023-03-18T19:06:26.148Z,12.50
2023-03-18T19:08:55.391Z,12.50
2023-03-18T19:11:24.641Z,12.50
2023-03-18T19:13:52.506Z,12.50
2023-03-18T19:16:25.302Z,12.40
2023-03-18T19:18:52.277Z,12.30
2023-03-18T19:21:19.244Z,12.20
2023-03-18T19:23:46.897Z,12.20
2023-03-18T19:26:16.235Z,12.10
2023-03-18T19:28:57.533Z,12.00
2023-03-18T19:31:30.336Z,11.90
2023-03-18T19:33:59.700Z,11.90
2023-03-18T19:36:41.122Z,11.90
2023-03-18T19:39:14.656Z,12.00
2023-03-18T19:41:41.813Z,12.00
2023-03-18T19:44:23.342Z,12.00
2023-03-18T19:46:54.055Z,11.90
2023-03-18T19:49:23.916Z,11.80
2023-03-18T19:51:51.152Z,11.90
2023-03-18T19:54:32.906Z,11.90
2023-03-18T19:57:22.599Z,11.80
2023-03-18T19:59:50.691Z,11.70
2023-03-18T20:02:21.898Z,11.70
2023-03-18T20:04:50.359Z,11.60
2023-03-18T20:07:18.936Z,11.50
2023-03-18T20:09:45.936Z,11.50
2023-03-18T20:12:37.516Z,11.40
2023-03-18T20:15:22.873Z,11.40
2023-03-18T20:17:51.149Z,11.40
2023-03-18T20:20:24.021Z,11.40
2023-03-18T20:23:03.501Z,11.30
2023-03-18T20:25:41.132Z,11.20
2023-03-18T20:28:14.438Z,11.10
2023-03-18T20:30:41.488Z,11.00
2023-03-18T20:33:08.879Z,11.00
2023-03-18T20:35:38.923Z,11.00
2023-03-18T20:38:30.210Z,11.00
2023-03-18T20:40:57.352Z,11.00
2023-03-18T20:43:25.863Z,11.10
2023-03-18T20:45:53.113Z,11.10
2023-03-18T20:48:21.007Z,11.10
2023-03-18T20:50:47.972Z,11.20
2023-03-18T20:53:18.598Z,11.20
2023-03-18T20:55:46.919Z,11.10
2023-03-18T20:58:25.502Z,11.10
2023-03-18T21:00:53.117Z,11.00
2023-03-18T21:03:31.526Z,11.00
2023-03-18T21:06:00.453Z,10.90
2023-03-18T21:08:28.529Z,10.90
2023-03-18T21:10:56.698Z,10.80
2023-03-18T21:13:31.152Z,10.70
2023-03-18T21:15:58.884Z,10.60
2023-03-18T21:18:27.645Z,10.60
2023-03-18T21:20:55.408Z,10.60
2023-03-18T21:23:27.801Z,10.60
2023-03-18T21:25:55.255Z,10.60
2023-03-18T21:28:25.547Z,10.50
2023-03-18T21:30:56.088Z,10.50
2023-03-18T21:33:28.474Z,10.40
2023-03-18T21:35:57.225Z,10.40
2023-03-18T21:38:28.793Z,10.30
2023-03-18T21:40:57.386Z,10.30
2023-03-18T21:43:36.015Z,10.20
2023-03-18T21:46:05.863Z,10.20
2023-03-18T21:48:33.153Z,10.10
2023-03-18T21:51:00.154Z,10.00
2023-03-18T21:53:28.448Z,10.00
2023-03-18T21:55:55.492Z,9.90
2023-03-18T21:58:24.845Z,9.90
2023-03-18T22:00:57.010Z,9.80
2023-03-18T22:03:27.153Z,9.80
2023-03-18T22:05:54.585Z,9.70
2023-03-18T22:08:22.121Z,9.70
2023-03-18T22:10:50.606Z,9.70
2023-03-18T22:13:22.554Z,9.70
2023-03-18T22:15:57.715Z,9.60
2023-03-18T22:18:25.647Z,9.60
2023-03-18T22:20:52.597Z,9.60
2023-03-18T22:23:21.644Z,9.50
2023-03-18T22:25:53.003Z,9.50
2023-03-18T22:28:20.844Z,9.50
2023-03-18T22:30:55.157Z,9.50
2023-03-18T22:33:26.668Z,9.50
2023-03-18T22:35:53.982Z,9.50
2023-03-18T22:38:22.533Z,9.50
2023-03-18T22:40:52.705Z,9.40
2023-03-18T22:43:33.512Z,9.40
2023-03-18T22:46:02.056Z,9.30
2023-03-18T22:48:29.401Z,9.40
2023-03-18T22:50:59.118Z,9.30
2023-03-18T22:53:38.423Z,9.20
2023-03-18T22:56:14.028Z,9.30
2023-03-18T22:58:42.087Z,9.30
2023-03-18T23:01:20.490Z,9.20
2023-03-18T23:03:47.656Z,9.20
2023-03-18T23:06:20.213Z,9.30
2023-03-18T23:08:47.488Z,9.20
2023-03-18T23:11:15.733Z,9.20
2023-03-18T23:13:46.483Z,9.20
2023-03-18T23:16:21.757Z,9.20
2023-03-18T23:18:49.246Z,9.10
2023-03-18T23:21:19.684Z,9.10
2023-03-18T23:23:46.923Z,9.10
2023-03-18T23:26:15.330Z,9.00
2023-03-18T23:28:44.897Z,9.00
2023-03-18T23:31:12.788Z,9.00
2023-03-18T23:33:39.893Z,9.00
2023-03-18T23:36:07.585Z,8.90
2023-03-18T23:38:34.722Z,8.90
2023-03-18T23:41:01.805Z,8.80
2023-03-18T23:43:28.715Z,8.80
2023-03-18T23:45:55.990Z,8.70
2023-03-18T23:48:22.931Z,8.60
2023-03-18T23:50:49.888Z,8.70
2023-03-18T23:53:17.041Z,8.60
2023-03-18T23:55:43.865Z,8.60
2023-03-18T23:58:10.893Z,8.60
